Terminal Aerodrome Forecast
Issued by NWS Detroit/Pontiac, MI

Home | Current Version | Previous Version | Text Only | Print | Product List | Glossary On
Versions: 1 2 3 4 5 6 7 8 9 10 11 12 13 14 15 16 17 18 19 20 21 22 23 24 25 26 27 28
000
FTUS43 KDTX 201139
TAFDTW
TAF
KDTW 201139Z 2012/2118 22012KT P6SM BKN200
     FM201600 23010G18KT P6SM FEW020 BKN200
     FM210000 23007KT 5SM BR OVC020
     FM211000 20005KT 4SM BR OVC010=

USA.gov is the U.S. government's official web portal to all federal, state and local government web resources and services.